sensor_id;sensor_type;location;lat;lon;timestamp;pressure;altitude;pressure_sealevel;temperature;humidity
60375;BME280;70244;48.792;9.172;2023-07-08T04:15:51;97702.60;;;29.39;33.68
60375;BME280;70244;48.792;9.172;2023-07-08T04:18:18;97706.90;;;29.46;33.64
60375;BME280;70244;48.792;9.172;2023-07-08T04:21:15;97710.46;;;29.45;33.72
60375;BME280;70244;48.792;9.172;2023-07-08T04:23:45;97706.61;;;29.44;33.75
60375;BME280;70244;48.792;9.172;2023-07-08T04:26:15;97704.46;;;29.31;34.00
60375;BME280;70244;48.792;9.172;2023-07-08T04:28:46;97699.01;;;29.43;33.74
60375;BME280;70244;48.792;9.172;2023-07-08T04:31:15;97699.44;;;29.42;33.85
60375;BME280;70244;48.792;9.172;2023-07-08T04:33:46;97700.07;;;29.52;33.74
60375;BME280;70244;48.792;9.172;2023-07-08T04:36:17;97699.31;;;29.53;33.83
60375;BME280;70244;48.792;9.172;2023-07-08T04:38:47;97699.84;;;29.56;33.87
60375;BME280;70244;48.792;9.172;2023-07-08T04:41:18;97697.86;;;29.61;33.86
60375;BME280;70244;48.792;9.172;2023-07-08T04:43:48;97697.28;;;29.57;34.02
60375;BME280;70244;48.792;9.172;2023-07-08T04:46:23;97699.49;;;29.56;34.06
60375;BME280;70244;48.792;9.172;2023-07-08T04:48:50;97700.62;;;29.59;34.03
60375;BME280;70244;48.792;9.172;2023-07-08T04:51:20;97703.54;;;29.61;34.08
60375;BME280;70244;48.792;9.172;2023-07-08T04:53:51;97707.65;;;29.61;34.13
60375;BME280;70244;48.792;9.172;2023-07-08T04:56:22;97723.91;;;29.66;34.13
60375;BME280;70244;48.792;9.172;2023-07-08T04:58:52;97719.29;;;29.67;34.16
60375;BME280;70244;48.792;9.172;2023-07-08T05:01:23;97710.34;;;29.69;34.14
60375;BME280;70244;48.792;9.172;2023-07-08T05:03:53;97705.80;;;29.63;34.24
60375;BME280;70244;48.792;9.172;2023-07-08T05:06:24;97711.65;;;29.50;34.78
60375;BME280;70244;48.792;9.172;2023-07-08T05:08:55;97706.30;;;29.64;34.54
60375;BME280;70244;48.792;9.172;2023-07-08T05:11:25;97711.37;;;29.67;34.56
60375;BME280;70244;48.792;9.172;2023-07-08T05:13:55;97709.28;;;29.58;34.58
60375;BME280;70244;48.792;9.172;2023-07-08T05:16:26;97718.53;;;29.53;34.81
60375;BME280;70244;48.792;9.172;2023-07-08T05:18:56;97716.10;;;29.41;35.31
60375;BME280;70244;48.792;9.172;2023-07-08T05:21:29;97725.13;;;29.39;34.86
60375;BME280;70244;48.792;9.172;2023-07-08T05:23:57;97721.85;;;29.54;34.35
60375;BME280;70244;48.792;9.172;2023-07-08T05:26:28;97728.07;;;29.60;34.26
60375;BME280;70244;48.792;9.172;2023-07-08T05:28:58;97739.16;;;29.65;34.22
60375;BME280;70244;48.792;9.172;2023-07-08T05:31:28;97749.34;;;29.48;34.40
60375;BME280;70244;48.792;9.172;2023-07-08T05:33:58;97736.45;;;29.27;34.49
60375;BME280;70244;48.792;9.172;2023-07-08T05:36:29;97735.58;;;29.21;34.50
60375;BME280;70244;48.792;9.172;2023-07-08T05:38:59;97743.66;;;29.30;34.38
60375;BME280;70244;48.792;9.172;2023-07-08T05:41:30;97754.05;;;29.37;34.63
60375;BME280;70244;48.792;9.172;2023-07-08T05:44:00;97756.54;;;29.52;34.43
60375;BME280;70244;48.792;9.172;2023-07-08T05:46:30;97759.17;;;29.48;34.63
60375;BME280;70244;48.792;9.172;2023-07-08T05:49:01;97750.36;;;29.59;34.29
60375;BME280;70244;48.792;9.172;2023-07-08T05:51:33;97747.37;;;29.69;34.14
60375;BME280;70244;48.792;9.172;2023-07-08T05:54:02;97752.40;;;29.68;34.21
60375;BME280;70244;48.792;9.172;2023-07-08T05:56:32;97747.65;;;29.65;34.25
60375;BME280;70244;48.792;9.172;2023-07-08T05:59:03;97752.94;;;29.67;34.35
60375;BME280;70244;48.792;9.172;2023-07-08T06:01:33;97758.03;;;29.70;34.27
60375;BME280;70244;48.792;9.172;2023-07-08T06:04:03;97759.37;;;29.66;34.08
60375;BME280;70244;48.792;9.172;2023-07-08T06:06:34;97757.46;;;29.66;33.98
60375;BME280;70244;48.792;9.172;2023-07-08T06:09:04;97752.62;;;29.67;34.08
60375;BME280;70244;48.792;9.172;2023-07-08T06:11:34;97753.94;;;29.62;34.06
60375;BME280;70244;48.792;9.172;2023-07-08T06:14:05;97758.63;;;29.61;34.26
60375;BME280;70244;48.792;9.172;2023-07-08T06:16:35;97759.15;;;29.54;34.13
60375;BME280;70244;48.792;9.172;2023-07-08T06:19:05;97766.16;;;29.44;34.31
60375;BME280;70244;48.792;9.172;2023-07-08T06:21:35;97769.11;;;29.53;34.07
60375;BME280;70244;48.792;9.172;2023-07-08T06:24:06;97770.51;;;29.50;34.20
60375;BME280;70244;48.792;9.172;2023-07-08T06:26:36;97767.25;;;29.54;34.19
60375;BME280;70244;48.792;9.172;2023-07-08T06:29:07;97767.48;;;29.62;34.34
60375;BME280;70244;48.792;9.172;2023-07-08T06:31:37;97768.00;;;29.64;34.37
60375;BME280;70244;48.792;9.172;2023-07-08T06:34:08;97770.58;;;29.63;34.57
60375;BME280;70244;48.792;9.172;2023-07-08T06:36:39;97773.70;;;28.87;36.84
60375;BME280;70244;48.792;9.172;2023-07-08T06:39:09;97782.81;;;29.15;36.25
60375;BME280;70244;48.792;9.172;2023-07-08T06:41:40;97786.60;;;29.64;34.85
60375;BME280;70244;48.792;9.172;2023-07-08T06:44:10;97792.80;;;29.66;34.80
60375;BME280;70244;48.792;9.172;2023-07-08T06:46:41;97791.54;;;29.40;35.34
60375;BME280;70244;48.792;9.172;2023-07-08T06:49:11;97797.64;;;29.60;34.77
60375;BME280;70244;48.792;9.172;2023-07-08T06:51:41;97797.93;;;29.66;34.80
60375;BME280;70244;48.792;9.172;2023-07-08T06:54:12;97795.43;;;29.69;34.87
60375;BME280;70244;48.792;9.172;2023-07-08T06:56:42;97794.64;;;29.69;36.42
60375;BME280;70244;48.792;9.172;2023-07-08T06:59:13;97796.56;;;29.26;38.31
60375;BME280;70244;48.792;9.172;2023-07-08T07:01:43;97798.68;;;29.42;37.55
60375;BME280;70244;48.792;9.172;2023-07-08T07:04:14;97798.24;;;29.53;37.68
60375;BME280;70244;48.792;9.172;2023-07-08T07:06:44;97795.89;;;29.82;36.62
60375;BME280;70244;48.792;9.172;2023-07-08T07:09:14;97797.48;;;29.97;36.34
60375;BME280;70244;48.792;9.172;2023-07-08T07:11:45;97798.61;;;30.01;36.58
60375;BME280;70244;48.792;9.172;2023-07-08T07:14:15;97799.24;;;30.03;36.34
60375;BME280;70244;48.792;9.172;2023-07-08T07:16:46;97800.73;;;30.11;36.39
60375;BME280;70244;48.792;9.172;2023-07-08T07:19:16;97807.58;;;30.12;36.91
60375;BME280;70244;48.792;9.172;2023-07-08T07:21:47;97811.39;;;29.95;36.83
60375;BME280;70244;48.792;9.172;2023-07-08T07:24:17;97810.80;;;30.11;36.40
60375;BME280;70244;48.792;9.172;2023-07-08T07:26:47;97811.12;;;30.03;36.73
60375;BME280;70244;48.792;9.172;2023-07-08T07:29:18;97809.63;;;29.98;36.80
60375;BME280;70244;48.792;9.172;2023-07-08T07:31:49;97808.63;;;30.10;36.52
60375;BME280;70244;48.792;9.172;2023-07-08T07:34:19;97805.70;;;30.14;36.74
60375;BME280;70244;48.792;9.172;2023-07-08T07:36:50;97809.07;;;30.12;36.85
60375;BME280;70244;48.792;9.172;2023-07-08T07:39:20;97811.56;;;30.16;36.80
60375;BME280;70244;48.792;9.172;2023-07-08T07:41:51;97813.22;;;30.12;37.32
60375;BME280;70244;48.792;9.172;2023-07-08T07:44:21;97815.71;;;30.08;37.27
60375;BME280;70244;48.792;9.172;2023-07-08T07:46:52;97819.33;;;30.13;37.16
60375;BME280;70244;48.792;9.172;2023-07-08T07:49:23;97816.16;;;30.15;37.39
60375;BME280;70244;48.792;9.172;2023-07-08T07:51:53;97819.35;;;30.13;37.58
60375;BME280;70244;48.792;9.172;2023-07-08T07:54:24;97818.65;;;30.17;37.43
60375;BME280;70244;48.792;9.172;2023-07-08T07:56:54;97817.85;;;30.15;37.38
60375;BME280;70244;48.792;9.172;2023-07-08T07:59:25;97819.97;;;30.13;37.19
60375;BME280;70244;48.792;9.172;2023-07-08T08:01:55;97817.54;;;30.16;37.13
60375;BME280;70244;48.792;9.172;2023-07-08T08:04:25;97812.15;;;30.14;37.06
60375;BME280;70244;48.792;9.172;2023-07-08T08:06:56;97810.35;;;30.20;37.11
60375;BME280;70244;48.792;9.172;2023-07-08T08:09:26;97807.87;;;30.19;37.04
60375;BME280;70244;48.792;9.172;2023-07-08T08:11:57;97807.91;;;30.23;36.82
60375;BME280;70244;48.792;9.172;2023-07-08T08:14:27;97806.98;;;30.12;36.78
60375;BME280;70244;48.792;9.172;2023-07-08T08:16:58;97813.80;;;30.21;36.74
60375;BME280;70244;48.792;9.172;2023-07-08T08:19:29;97815.09;;;30.19;36.37
60375;BME280;70244;48.792;9.172;2023-07-08T08:21:59;97819.42;;;30.18;36.50
60375;BME280;70244;48.792;9.172;2023-07-08T08:24:29;97815.48;;;30.16;37.20
60375;BME280;70244;48.792;9.172;2023-07-08T08:27:00;97818.70;;;30.15;36.96
60375;BME280;70244;48.792;9.172;2023-07-08T08:29:30;97822.48;;;30.18;36.75
60375;BME280;70244;48.792;9.172;2023-07-08T08:32:01;97820.44;;;30.21;36.79
60375;BME280;70244;48.792;9.172;2023-07-08T08:34:31;97820.99;;;30.17;37.06
60375;BME280;70244;48.792;9.172;2023-07-08T08:37:03;97823.73;;;30.24;37.05
60375;BME280;70244;48.792;9.172;2023-07-08T08:39:33;97820.78;;;30.25;37.15
60375;BME280;70244;48.792;9.172;2023-07-08T08:42:04;97816.29;;;30.21;36.95
60375;BME280;70244;48.792;9.172;2023-07-08T08:44:35;97818.37;;;30.22;37.00
60375;BME280;70244;48.792;9.172;2023-07-08T08:47:11;97820.80;;;30.23;36.92
60375;BME280;70244;48.792;9.172;2023-07-08T08:49:39;97816.25;;;30.13;36.86
60375;BME280;70244;48.792;9.172;2023-07-08T08:52:06;97824.79;;;30.18;36.90
60375;BME280;70244;48.792;9.172;2023-07-08T08:54:36;97829.45;;;30.21;36.96
60375;BME280;70244;48.792;9.172;2023-07-08T08:57:13;97830.94;;;30.15;37.15
60375;BME280;70244;48.792;9.172;2023-07-08T08:59:42;97829.76;;;30.20;36.92
60375;BME280;70244;48.792;9.172;2023-07-08T09:04:39;97830.08;;;30.09;36.93
60375;BME280;70244;48.792;9.172;2023-07-08T09:07:16;97830.88;;;30.22;36.89
60375;BME280;70244;48.792;9.172;2023-07-08T09:09:54;97829.88;;;30.16;37.00
60375;BME280;70244;48.792;9.172;2023-07-08T09:12:12;97832.86;;;30.23;36.93
60375;BME280;70244;48.792;9.172;2023-07-08T09:14:41;97834.53;;;30.27;36.71
60375;BME280;70244;48.792;9.172;2023-07-08T09:17:19;97832.77;;;30.20;36.78
60375;BME280;70244;48.792;9.172;2023-07-08T09:19:44;97834.62;;;30.23;36.82
60375;BME280;70244;48.792;9.172;2023-07-08T09:22:15;97832.41;;;30.23;36.42
60375;BME280;70244;48.792;9.172;2023-07-08T09:24:48;97833.89;;;30.22;36.60
60375;BME280;70244;48.792;9.172;2023-07-08T09:27:14;97832.32;;;30.24;36.56
60375;BME280;70244;48.792;9.172;2023-07-08T09:29:45;97834.20;;;30.25;36.55
60375;BME280;70244;48.792;9.172;2023-07-08T09:32:17;97833.66;;;30.25;36.68
60375;BME280;70244;48.792;9.172;2023-07-08T09:34:47;97830.21;;;30.19;36.72
60375;BME280;70244;48.792;9.172;2023-07-08T09:37:23;97831.62;;;30.28;36.74
60375;BME280;70244;48.792;9.172;2023-07-08T09:39:47;97825.21;;;30.29;36.60
60375;BME280;70244;48.792;9.172;2023-07-08T09:42:18;97822.02;;;30.25;36.54
60375;BME280;70244;48.792;9.172;2023-07-08T09:44:48;97823.90;;;30.28;36.47
60375;BME280;70244;48.792;9.172;2023-07-08T09:47:21;97822.69;;;30.27;36.53
60375;BME280;70244;48.792;9.172;2023-07-08T09:49:52;97821.86;;;30.24;36.38
60375;BME280;70244;48.792;9.172;2023-07-08T09:52:20;97822.06;;;30.18;36.30
60375;BME280;70244;48.792;9.172;2023-07-08T09:54:51;97820.09;;;30.07;36.46
60375;BME280;70244;48.792;9.172;2023-07-08T09:57:27;97824.49;;;30.08;36.49
60375;BME280;70244;48.792;9.172;2023-07-08T09:59:56;97829.92;;;30.10;36.47
60375;BME280;70244;48.792;9.172;2023-07-08T10:02:29;97826.25;;;30.21;36.46
60375;BME280;70244;48.792;9.172;2023-07-08T10:04:53;97830.04;;;30.23;36.45
60375;BME280;70244;48.792;9.172;2023-07-08T10:07:27;97830.44;;;30.24;36.65
60375;BME280;70244;48.792;9.172;2023-07-08T10:09:57;97831.94;;;30.20;37.51
60375;BME280;70244;48.792;9.172;2023-07-08T10:12:25;97838.32;;;30.27;36.94
60375;BME280;70244;48.792;9.172;2023-07-08T10:14:59;97835.71;;;30.30;36.84
60375;BME280;70244;48.792;9.172;2023-07-08T10:17:26;97836.18;;;30.31;36.71
60375;BME280;70244;48.792;9.172;2023-07-08T10:19:56;97833.76;;;30.33;37.04
60375;BME280;70244;48.792;9.172;2023-07-08T10:22:37;97829.25;;;30.19;36.94
60375;BME280;70244;48.792;9.172;2023-07-08T10:25:09;97829.49;;;30.28;37.32
60375;BME280;70244;48.792;9.172;2023-07-08T10:27:34;97833.02;;;30.26;37.38
60375;BME280;70244;48.792;9.172;2023-07-08T10:30:07;97834.20;;;30.23;37.32
60375;BME280;70244;48.792;9.172;2023-07-08T10:32:38;97833.64;;;30.17;37.68
60375;BME280;70244;48.792;9.172;2023-07-08T10:35:04;97831.25;;;30.21;37.33
60375;BME280;70244;48.792;9.172;2023-07-08T10:37:41;97834.78;;;30.00;37.68
60375;BME280;70244;48.792;9.172;2023-07-08T10:40:14;97835.08;;;30.26;37.42
60375;BME280;70244;48.792;9.172;2023-07-08T10:42:42;97836.69;;;30.17;37.38
60375;BME280;70244;48.792;9.172;2023-07-08T10:45:10;97834.31;;;30.24;37.44
60375;BME280;70244;48.792;9.172;2023-07-08T10:47:43;97833.62;;;30.22;37.17
60375;BME280;70244;48.792;9.172;2023-07-08T10:50:17;97831.85;;;30.35;36.99
60375;BME280;70244;48.792;9.172;2023-07-08T10:52:46;97828.64;;;30.26;36.94
60375;BME280;70244;48.792;9.172;2023-07-08T10:55:15;97827.97;;;30.33;36.80
60375;BME280;70244;48.792;9.172;2023-07-08T10:57:48;97823.90;;;30.33;36.92
60375;BME280;70244;48.792;9.172;2023-07-08T11:00:16;97826.05;;;30.33;37.00
60375;BME280;70244;48.792;9.172;2023-07-08T11:05:19;97825.78;;;30.45;37.32
60375;BME280;70244;48.792;9.172;2023-07-08T11:07:40;97825.53;;;30.29;37.81
60375;BME280;70244;48.792;9.172;2023-07-08T11:10:14;97822.86;;;30.30;37.64
60375;BME280;70244;48.792;9.172;2023-07-08T11:12:44;97826.13;;;30.43;37.25
60375;BME280;70244;48.792;9.172;2023-07-08T11:15:16;97825.51;;;30.42;37.18
60375;BME280;70244;48.792;9.172;2023-07-08T11:17:43;97824.69;;;30.43;36.96
60375;BME280;70244;48.792;9.172;2023-07-08T11:20:16;97824.76;;;30.45;37.10
60375;BME280;70244;48.792;9.172;2023-07-08T11:22:46;97822.12;;;30.37;37.22
60375;BME280;70244;48.792;9.172;2023-07-08T11:25:17;97820.97;;;30.38;37.01
60375;BME280;70244;48.792;9.172;2023-07-08T11:27:42;97820.80;;;30.44;37.12
60375;BME280;70244;48.792;9.172;2023-07-08T11:30:14;97822.20;;;30.43;37.16
60375;BME280;70244;48.792;9.172;2023-07-08T11:32:46;97822.05;;;30.41;37.27
60375;BME280;70244;48.792;9.172;2023-07-08T11:35:19;97815.41;;;30.37;37.34
60375;BME280;70244;48.792;9.172;2023-07-08T11:37:45;97811.00;;;30.48;37.32
60375;BME280;70244;48.792;9.172;2023-07-08T11:40:19;97813.00;;;30.33;37.35
60375;BME280;70244;48.792;9.172;2023-07-08T11:42:48;97814.87;;;30.46;37.01
60375;BME280;70244;48.792;9.172;2023-07-08T11:45:24;97809.82;;;30.36;37.26
60375;BME280;70244;48.792;9.172;2023-07-08T11:47:49;97806.29;;;30.31;37.30
60375;BME280;70244;48.792;9.172;2023-07-08T11:50:21;97807.22;;;30.34;37.53
60375;BME280;70244;48.792;9.172;2023-07-08T11:52:53;97801.01;;;30.47;37.26
60375;BME280;70244;48.792;9.172;2023-07-08T11:55:23;97795.73;;;30.42;37.55
60375;BME280;70244;48.792;9.172;2023-07-08T11:57:53;97792.77;;;30.37;37.39
60375;BME280;70244;48.792;9.172;2023-07-08T12:00:23;97792.61;;;30.40;37.66
60375;BME280;70244;48.792;9.172;2023-07-08T12:02:53;97788.32;;;30.20;37.87
60375;BME280;70244;48.792;9.172;2023-07-08T12:05:30;97783.06;;;30.33;38.18
60375;BME280;70244;48.792;9.172;2023-07-08T12:07:56;97779.26;;;30.34;38.24
60375;BME280;70244;48.792;9.172;2023-07-08T12:10:28;97773.60;;;30.13;38.62
60375;BME280;70244;48.792;9.172;2023-07-08T12:12:53;97774.82;;;30.29;38.56
60375;BME280;70244;48.792;9.172;2023-07-08T12:15:26;97776.07;;;30.45;38.02
60375;BME280;70244;48.792;9.172;2023-07-08T12:17:56;97774.12;;;30.50;38.13
60375;BME280;70244;48.792;9.172;2023-07-08T12:20:27;97771.00;;;30.56;38.30
60375;BME280;70244;48.792;9.172;2023-07-08T12:22:55;97772.03;;;30.55;37.94
60375;BME280;70244;48.792;9.172;2023-07-08T12:25:31;97766.25;;;30.48;38.19
60375;BME280;70244;48.792;9.172;2023-07-08T12:27:57;97766.29;;;30.49;37.82
60375;BME280;70244;48.792;9.172;2023-07-08T12:30:29;97762.95;;;30.48;37.76
60375;BME280;70244;48.792;9.172;2023-07-08T12:32:59;97761.22;;;30.56;37.67
60375;BME280;70244;48.792;9.172;2023-07-08T12:35:31;97761.43;;;30.48;37.61
60375;BME280;70244;48.792;9.172;2023-07-08T12:38:01;97763.29;;;30.48;37.58
60375;BME280;70244;48.792;9.172;2023-07-08T12:40:30;97762.43;;;30.62;37.42
60375;BME280;70244;48.792;9.172;2023-07-08T12:43:01;97762.27;;;30.05;39.31
60375;BME280;70244;48.792;9.172;2023-07-08T12:45:31;97762.70;;;30.40;38.98
60375;BME280;70244;48.792;9.172;2023-07-08T12:48:01;97760.98;;;30.40;38.85
60375;BME280;70244;48.792;9.172;2023-07-08T12:50:32;97759.55;;;30.61;38.09
60375;BME280;70244;48.792;9.172;2023-07-08T12:53:04;97755.87;;;30.52;38.10
60375;BME280;70244;48.792;9.172;2023-07-08T12:55:33;97752.25;;;30.64;37.71
60375;BME280;70244;48.792;9.172;2023-07-08T12:58:04;97749.98;;;30.62;37.72
60375;BME280;70244;48.792;9.172;2023-07-08T13:00:39;97749.97;;;30.60;38.16
60375;BME280;70244;48.792;9.172;2023-07-08T13:03:08;97750.01;;;30.56;38.12
60375;BME280;70244;48.792;9.172;2023-07-08T13:05:35;97743.47;;;30.59;37.98
60375;BME280;70244;48.792;9.172;2023-07-08T13:08:13;97745.82;;;30.56;38.05
60375;BME280;70244;48.792;9.172;2023-07-08T13:10:36;97739.48;;;30.25;38.73
60375;BME280;70244;48.792;9.172;2023-07-08T13:13:12;97742.09;;;30.53;38.24
60375;BME280;70244;48.792;9.172;2023-07-08T13:15:40;97740.29;;;30.52;38.20
60375;BME280;70244;48.792;9.172;2023-07-08T13:18:13;97739.96;;;30.56;38.31
60375;BME280;70244;48.792;9.172;2023-07-08T13:20:39;97744.62;;;30.58;38.15
60375;BME280;70244;48.792;9.172;2023-07-08T13:23:10;97743.01;;;30.29;38.99
60375;BME280;70244;48.792;9.172;2023-07-08T13:25:40;97738.74;;;30.40;38.88
60375;BME280;70244;48.792;9.172;2023-07-08T13:28:16;97737.03;;;30.40;38.72
60375;BME280;70244;48.792;9.172;2023-07-08T13:30:50;97737.39;;;30.58;38.48
60375;BME280;70244;48.792;9.172;2023-07-08T13:33:16;97730.28;;;30.58;38.35
60375;BME280;70244;48.792;9.172;2023-07-08T13:35:43;97733.73;;;30.31;39.30
60375;BME280;70244;48.792;9.172;2023-07-08T13:40:46;97731.34;;;30.41;38.75
60375;BME280;70244;48.792;9.172;2023-07-08T13:43:14;97731.32;;;30.41;38.95
60375;BME280;70244;48.792;9.172;2023-07-08T13:45:45;97731.87;;;30.59;38.49
60375;BME280;70244;48.792;9.172;2023-07-08T13:48:22;97736.25;;;30.62;38.60
60375;BME280;70244;48.792;9.172;2023-07-08T13:50:49;97732.71;;;30.67;38.38
60375;BME280;70244;48.792;9.172;2023-07-08T13:53:20;97732.33;;;30.68;38.40
60375;BME280;70244;48.792;9.172;2023-07-08T13:55:47;97731.36;;;30.73;38.31
60375;BME280;70244;48.792;9.172;2023-07-08T13:58:17;97724.75;;;30.77;38.20
60375;BME280;70244;48.792;9.172;2023-07-08T14:00:47;97719.97;;;30.29;38.78
60375;BME280;70244;48.792;9.172;2023-07-08T14:03:18;97718.10;;;30.60;38.19
60375;BME280;70244;48.792;9.172;2023-07-08T14:05:49;97719.47;;;30.68;37.70
60375;BME280;70244;48.792;9.172;2023-07-08T14:08:19;97719.78;;;30.76;37.46
60375;BME280;70244;48.792;9.172;2023-07-08T14:10:49;97717.42;;;30.77;37.47
60375;BME280;70244;48.792;9.172;2023-07-08T14:13:20;97717.43;;;30.83;37.05
60375;BME280;70244;48.792;9.172;2023-07-08T14:15:51;97717.74;;;30.76;36.97
60375;BME280;70244;48.792;9.172;2023-07-08T14:18:21;97716.43;;;30.82;36.83
60375;BME280;70244;48.792;9.172;2023-07-08T14:20:52;97722.72;;;30.24;38.86
60375;BME280;70244;48.792;9.172;2023-07-08T14:23:23;97726.04;;;30.68;37.72
60375;BME280;70244;48.792;9.172;2023-07-08T14:25:53;97724.88;;;30.59;37.81
60375;BME280;70244;48.792;9.172;2023-07-08T14:28:24;97723.35;;;30.73;37.53
60375;BME280;70244;48.792;9.172;2023-07-08T14:30:54;97720.13;;;30.68;38.11
60375;BME280;70244;48.792;9.172;2023-07-08T14:33:25;97718.69;;;30.83;37.61
60375;BME280;70244;48.792;9.172;2023-07-08T14:35:56;97715.06;;;30.80;37.63
60375;BME280;70244;48.792;9.172;2023-07-08T14:38:27;97715.40;;;30.84;37.64
60375;BME280;70244;48.792;9.172;2023-07-08T14:40:57;97714.74;;;30.81;37.68
60375;BME280;70244;48.792;9.172;2023-07-08T14:43:29;97714.40;;;30.77;37.80
60375;BME280;70244;48.792;9.172;2023-07-08T14:46:00;97714.93;;;30.76;37.88
60375;BME280;70244;48.792;9.172;2023-07-08T14:48:30;97713.04;;;30.74;37.99
60375;BME280;70244;48.792;9.172;2023-07-08T14:50:59;97713.41;;;30.70;38.16
60375;BME280;70244;48.792;9.172;2023-07-08T14:53:32;97710.36;;;30.66;38.21
60375;BME280;70244;48.792;9.172;2023-07-08T14:56:06;97709.00;;;30.60;38.36
60375;BME280;70244;48.792;9.172;2023-07-08T14:58:33;97713.97;;;30.65;38.32
60375;BME280;70244;48.792;9.172;2023-07-08T15:01:11;97708.46;;;30.71;38.22
60375;BME280;70244;48.792;9.172;2023-07-08T15:03:32;97709.83;;;30.79;38.11
60375;BME280;70244;48.792;9.172;2023-07-08T15:06:07;97707.26;;;30.83;38.10
60375;BME280;70244;48.792;9.172;2023-07-08T15:08:33;97705.74;;;30.77;38.30
60375;BME280;70244;48.792;9.172;2023-07-08T15:11:05;97706.04;;;30.77;38.28
60375;BME280;70244;48.792;9.172;2023-07-08T15:13:35;97710.01;;;30.72;38.39
60375;BME280;70244;48.792;9.172;2023-07-08T15:16:05;97713.32;;;30.72;38.47
60375;BME280;70244;48.792;9.172;2023-07-08T15:18:36;97709.18;;;30.76;38.38
60375;BME280;70244;48.792;9.172;2023-07-08T15:21:09;97708.45;;;30.76;38.40
60375;BME280;70244;48.792;9.172;2023-07-08T15:23:37;97709.78;;;30.77;38.60
60375;BME280;70244;48.792;9.172;2023-07-08T15:26:10;97709.83;;;30.85;38.49
60375;BME280;70244;48.792;9.172;2023-07-08T15:28:40;97703.35;;;30.86;38.51
60375;BME280;70244;48.792;9.172;2023-07-08T15:31:10;97700.96;;;30.97;38.30
60375;BME280;70244;48.792;9.172;2023-07-08T15:33:40;97706.10;;;31.02;38.02
60375;BME280;70244;48.792;9.172;2023-07-08T15:36:11;97710.08;;;31.03;37.73
60375;BME280;70244;48.792;9.172;2023-07-08T15:38:41;97704.66;;;30.50;39.12
60375;BME280;70244;48.792;9.172;2023-07-08T15:41:19;97703.05;;;30.88;38.01
60375;BME280;70244;48.792;9.172;2023-07-08T15:43:41;97700.98;;;30.85;38.32
60375;BME280;70244;48.792;9.172;2023-07-08T15:46:12;97693.40;;;31.23;37.60
60375;BME280;70244;48.792;9.172;2023-07-08T15:48:42;97693.28;;;31.30;37.69
60375;BME280;70244;48.792;9.172;2023-07-08T15:51:14;97695.03;;;31.43;37.40
60375;BME280;70244;48.792;9.172;2023-07-08T15:53:43;97695.19;;;31.45;37.35
60375;BME280;70244;48.792;9.172;2023-07-08T15:56:17;97692.31;;;31.36;37.72
60375;BME280;70244;48.792;9.172;2023-07-08T15:58:45;97691.93;;;31.34;37.60
60375;BME280;70244;48.792;9.172;2023-07-08T16:01:19;97694.43;;;31.35;37.52
60375;BME280;70244;48.792;9.172;2023-07-08T16:03:45;97692.45;;;31.27;37.61
60375;BME280;70244;48.792;9.172;2023-07-08T16:06:17;97692.83;;;31.32;37.47
60375;BME280;70244;48.792;9.172;2023-07-08T16:08:47;97692.82;;;31.29;37.56
60375;BME280;70244;48.792;9.172;2023-07-08T16:11:21;97688.20;;;31.28;37.57
60375;BME280;70244;48.792;9.172;2023-07-08T16:13:48;97692.36;;;31.29;37.54
60375;BME280;70244;48.792;9.172;2023-07-08T16:16:18;97692.50;;;31.33;37.54
60375;BME280;70244;48.792;9.172;2023-07-08T16:18:49;97690.37;;;31.35;37.54
60375;BME280;70244;48.792;9.172;2023-07-08T16:21:19;97690.27;;;31.34;37.56
60375;BME280;70244;48.792;9.172;2023-07-08T16:23:50;97691.70;;;31.42;37.32
60375;BME280;70244;48.792;9.172;2023-07-08T16:26:20;97694.32;;;31.41;37.44
60375;BME280;70244;48.792;9.172;2023-07-08T16:28:51;97694.37;;;31.40;37.43
60375;BME280;70244;48.792;9.172;2023-07-08T16:31:24;97691.53;;;31.34;37.52
60375;BME280;70244;48.792;9.172;2023-07-08T16:33:52;97694.10;;;31.29;37.49
60375;BME280;70244;48.792;9.172;2023-07-08T16:36:24;97699.87;;;31.42;37.42
60375;BME280;70244;48.792;9.172;2023-07-08T16:38:54;97697.90;;;31.42;37.49
60375;BME280;70244;48.792;9.172;2023-07-08T16:41:27;97694.40;;;31.41;37.44
60375;BME280;70244;48.792;9.172;2023-07-08T16:43:54;97693.99;;;31.44;37.38
60375;BME280;70244;48.792;9.172;2023-07-08T16:46:25;97691.97;;;31.43;37.47
60375;BME280;70244;48.792;9.172;2023-07-08T16:48:56;97690.65;;;31.45;37.37
60375;BME280;70244;48.792;9.172;2023-07-08T16:51:27;97687.37;;;31.43;37.47
60375;BME280;70244;48.792;9.172;2023-07-08T16:53:58;97683.93;;;31.45;37.43
60375;BME280;70244;48.792;9.172;2023-07-08T16:56:27;97684.79;;;31.50;37.33
60375;BME280;70244;48.792;9.172;2023-07-08T16:58:58;97680.52;;;31.45;37.48
60375;BME280;70244;48.792;9.172;2023-07-08T17:01:28;97680.04;;;31.52;37.35
60375;BME280;70244;48.792;9.172;2023-07-08T17:03:59;97682.37;;;31.53;37.46
60375;BME280;70244;48.792;9.172;2023-07-08T17:06:29;97679.42;;;31.33;37.84
60375;BME280;70244;48.792;9.172;2023-07-08T17:09:00;97679.09;;;31.47;37.73
60375;BME280;70244;48.792;9.172;2023-07-08T17:11:30;97680.23;;;31.62;37.37
60375;BME280;70244;48.792;9.172;2023-07-08T17:14:01;97680.15;;;31.49;37.51
60375;BME280;70244;48.792;9.172;2023-07-08T17:16:33;97680.59;;;31.44;37.80
60375;BME280;70244;48.792;9.172;2023-07-08T17:19:02;97678.52;;;31.19;38.61
60375;BME280;70244;48.792;9.172;2023-07-08T17:21:33;97679.57;;;31.40;37.82
60375;BME280;70244;48.792;9.172;2023-07-08T17:24:04;97678.86;;;31.41;37.70
60375;BME280;70244;48.792;9.172;2023-07-08T17:26:34;97680.89;;;31.55;37.60
60375;BME280;70244;48.792;9.172;2023-07-08T17:29:04;97685.47;;;31.63;37.71
60375;BME280;70244;48.792;9.172;2023-07-08T17:31:36;97689.07;;;31.52;37.85
60375;BME280;70244;48.792;9.172;2023-07-08T17:34:07;97688.62;;;31.53;37.94
60375;BME280;70244;48.792;9.172;2023-07-08T17:36:37;97692.04;;;31.51;37.67
60375;BME280;70244;48.792;9.172;2023-07-08T17:39:08;97693.47;;;31.59;37.76